createdAt,value
2018-12-21T00:00:57.512Z,3.80
2018-12-21T00:03:44.632Z,2.03
2018-12-21T00:06:38.539Z,2.43
2018-12-21T00:09:25.431Z,4.03
2018-12-21T00:12:12.925Z,3.10
2018-12-21T00:15:00.209Z,3.47
2018-12-21T00:17:47.490Z,5.33
2018-12-21T00:23:41.969Z,2.20
2018-12-21T00:26:29.458Z,3.72
2018-12-21T00:29:17.422Z,1.80
2018-12-21T00:32:22.833Z,3.40
2018-12-21T00:35:29.391Z,2.93
2018-12-21T00:38:35.946Z,3.20
2018-12-21T00:41:24.097Z,2.50
2018-12-21T00:44:12.951Z,3.30
2018-12-21T00:47:01.389Z,2.30
2018-12-21T00:49:49.240Z,4.07
2018-12-21T00:52:37.086Z,2.27
2018-12-21T00:55:24.931Z,2.30
2018-12-21T00:58:19.934Z,3.43
2018-12-21T01:01:08.528Z,4.47
2018-12-21T01:03:58.154Z,4.60
2018-12-21T01:06:42.872Z,2.70
2018-12-21T01:09:30.112Z,5.43
2018-12-21T01:12:21.404Z,2.23
2018-12-21T01:15:09.690Z,1.83
2018-12-21T01:17:57.198Z,2.00
2018-12-21T01:20:44.276Z,3.90
2018-12-21T01:23:31.828Z,4.30
2018-12-21T01:26:19.620Z,3.23
2018-12-21T01:29:07.362Z,4.43
2018-12-21T01:31:54.860Z,6.30
2018-12-21T01:34:42.411Z,3.67
2018-12-21T01:37:30.163Z,3.95
2018-12-21T01:40:19.336Z,5.33
2018-12-21T01:43:06.595Z,6.47
2018-12-21T01:45:54.402Z,8.07
2018-12-21T01:48:41.532Z,6.43
2018-12-21T01:51:30.253Z,3.13
2018-12-21T01:54:17.506Z,5.07
2018-12-21T01:57:05.982Z,4.12
2018-12-21T01:59:53.371Z,4.03
2018-12-21T02:02:40.460Z,3.07
2018-12-21T02:05:27.806Z,5.03
2018-12-21T02:08:14.900Z,4.50
2018-12-21T02:11:02.337Z,6.07
2018-12-21T02:13:49.808Z,3.92
2018-12-21T02:16:37.168Z,4.07
2018-12-21T02:19:24.489Z,4.00
2018-12-21T02:22:11.765Z,4.93
2018-12-21T02:24:59.310Z,5.95
2018-12-21T02:27:47.328Z,4.47
2018-12-21T02:30:42.961Z,4.37
2018-12-21T02:33:30.405Z,3.93
2018-12-21T02:36:18.045Z,3.30
2018-12-21T02:39:05.300Z,3.70
2018-12-21T02:41:53.808Z,2.27
2018-12-21T02:44:41.185Z,5.87
2018-12-21T02:47:28.606Z,2.20
2018-12-21T02:50:16.069Z,2.67
2018-12-21T02:53:03.390Z,3.93
2018-12-21T02:55:50.825Z,2.50
2018-12-21T02:58:38.341Z,3.00
2018-12-21T03:01:25.520Z,4.57
2018-12-21T03:04:12.945Z,2.37
2018-12-21T03:07:00.302Z,1.70
2018-12-21T03:09:47.519Z,3.00
2018-12-21T03:12:34.939Z,3.47
2018-12-21T03:15:22.288Z,4.80
2018-12-21T03:18:09.685Z,4.27
2018-12-21T03:24:04.185Z,6.10
2018-12-21T03:26:51.260Z,5.97
2018-12-21T03:29:38.628Z,3.20
2018-12-21T03:32:25.859Z,2.40
2018-12-21T03:35:12.862Z,3.03
2018-12-21T03:38:00.244Z,2.00
2018-12-21T03:40:47.863Z,2.13
2018-12-21T03:43:35.062Z,1.30
2018-12-21T03:46:22.610Z,3.72
2018-12-21T03:49:10.080Z,2.70
2018-12-21T03:51:57.530Z,1.80
2018-12-21T03:54:44.874Z,2.03
2018-12-21T04:00:38.842Z,2.10
2018-12-21T04:03:26.177Z,1.53
2018-12-21T04:06:13.642Z,2.10
2018-12-21T04:09:00.733Z,1.70
2018-12-21T04:11:47.933Z,2.43
2018-12-21T04:14:35.497Z,2.57
2018-12-21T04:17:22.777Z,2.67
2018-12-21T04:20:09.825Z,2.70
2018-12-21T04:22:57.414Z,2.13
2018-12-21T04:25:45.903Z,2.57
2018-12-21T04:28:33.318Z,1.70
2018-12-21T04:31:20.440Z,2.20
2018-12-21T04:34:07.857Z,1.40
2018-12-21T04:36:55.237Z,3.00
2018-12-21T04:42:48.713Z,3.87
2018-12-21T04:45:35.864Z,4.93
2018-12-21T04:48:23.406Z,3.37
2018-12-21T04:51:10.649Z,3.47
2018-12-21T04:53:57.790Z,1.90
2018-12-21T04:56:45.115Z,2.33
2018-12-21T04:59:32.468Z,1.77
2018-12-21T05:02:19.585Z,2.73
2018-12-21T05:05:06.763Z,2.20
2018-12-21T05:07:54.169Z,1.37
2018-12-21T05:10:41.509Z,0.80
2018-12-21T05:13:28.808Z,1.30
2018-12-21T05:16:16.432Z,0.80
2018-12-21T05:19:03.914Z,1.60
2018-12-21T05:21:51.168Z,2.00
2018-12-21T05:24:38.409Z,1.93
2018-12-21T05:27:25.626Z,3.47
2018-12-21T05:30:12.804Z,0.97
2018-12-21T05:33:00.215Z,2.93
2018-12-21T05:35:47.467Z,2.87
2018-12-21T05:38:36.140Z,3.30
2018-12-21T05:41:23.199Z,3.27
2018-12-21T05:44:10.510Z,3.57
2018-12-21T05:46:57.673Z,1.97
2018-12-21T05:49:45.635Z,2.87
2018-12-21T05:52:32.872Z,1.97
2018-12-21T05:55:19.949Z,2.80
2018-12-21T05:58:07.312Z,2.07
2018-12-21T06:00:55.511Z,1.83
2018-12-21T06:03:42.778Z,3.03
2018-12-21T06:06:30.456Z,3.97
2018-12-21T06:09:18.388Z,5.30
2018-12-21T06:12:08.523Z,2.13
2018-12-21T06:14:55.798Z,1.60
2018-12-21T06:17:45.200Z,2.87
2018-12-21T06:20:32.421Z,4.87
2018-12-21T06:23:20.223Z,2.40
2018-12-21T06:26:07.578Z,1.93
2018-12-21T06:28:54.905Z,3.10
2018-12-21T06:31:42.306Z,3.63
2018-12-21T06:34:29.590Z,1.80
2018-12-21T06:37:16.641Z,4.63
2018-12-21T06:43:10.178Z,3.10
2018-12-21T06:45:58.109Z,3.90
2018-12-21T06:48:45.450Z,6.33
2018-12-21T06:51:32.953Z,3.40
2018-12-21T06:54:20.608Z,2.40
2018-12-21T06:57:07.836Z,3.10
2018-12-21T06:59:57.369Z,2.90
2018-12-21T07:02:45.200Z,5.93
2018-12-21T07:05:32.563Z,2.03
2018-12-21T07:08:19.737Z,2.20
2018-12-21T07:11:06.962Z,2.00
2018-12-21T07:13:54.152Z,2.33
2018-12-21T07:16:41.250Z,2.67
2018-12-21T07:19:28.689Z,1.73
2018-12-21T07:22:16.032Z,2.00
2018-12-21T07:25:03.542Z,1.77
2018-12-21T07:27:50.913Z,2.50
2018-12-21T07:30:38.953Z,3.67
2018-12-21T07:33:26.667Z,1.60
2018-12-21T07:36:15.646Z,3.00
2018-12-21T07:39:03.072Z,3.97
2018-12-21T07:41:51.653Z,3.17
2018-12-21T07:44:39.635Z,1.10
2018-12-21T07:47:32.154Z,2.90
2018-12-21T07:50:18.079Z,2.53
2018-12-21T07:53:09.568Z,2.73
2018-12-21T07:55:57.599Z,2.37
2018-12-21T07:58:44.951Z,1.00
2018-12-21T08:01:32.619Z,2.07
2018-12-21T08:04:20.510Z,3.60
2018-12-21T08:07:08.547Z,2.20
2018-12-21T08:09:56.726Z,1.47
2018-12-21T08:12:44.852Z,2.33
2018-12-21T08:15:33.625Z,3.43
2018-12-21T08:18:22.481Z,2.87
2018-12-21T08:21:10.163Z,2.13
2018-12-21T08:23:57.817Z,1.60
2018-12-21T08:26:45.161Z,2.10
2018-12-21T08:29:32.982Z,2.20
2018-12-21T08:32:21.290Z,2.30
2018-12-21T08:35:10.607Z,1.30
2018-12-21T08:37:58.149Z,4.87
2018-12-21T08:40:51.734Z,2.57
2018-12-21T08:43:40.292Z,1.80
2018-12-21T08:46:28.428Z,1.97
2018-12-21T08:49:17.586Z,2.37
2018-12-21T08:52:06.345Z,3.50
2018-12-21T08:55:08.919Z,3.43
2018-12-21T08:57:58.157Z,6.10
2018-12-21T09:03:57.661Z,5.67
2018-12-21T09:09:57.373Z,4.30
2018-12-21T09:12:46.575Z,3.50
2018-12-21T09:15:36.228Z,2.07
2018-12-21T09:21:38.765Z,3.40
2018-12-21T09:24:31.019Z,3.27
2018-12-21T09:27:19.017Z,2.17
2018-12-21T09:33:17.260Z,3.33
2018-12-21T09:39:13.986Z,2.67
2018-12-21T09:42:01.720Z,4.27
2018-12-21T09:44:52.670Z,2.57
2018-12-21T09:47:38.044Z,6.63
2018-12-21T09:50:25.627Z,5.43
2018-12-21T09:53:14.861Z,7.63
2018-12-21T09:59:09.004Z,3.67
2018-12-21T10:01:56.683Z,3.50
2018-12-21T10:04:44.396Z,3.43
2018-12-21T10:07:32.349Z,3.30
2018-12-21T10:10:29.016Z,4.47
2018-12-21T10:13:21.527Z,1.30
2018-12-21T10:16:09.294Z,2.40
2018-12-21T10:18:58.863Z,1.63
2018-12-21T10:21:47.550Z,1.20
2018-12-21T10:24:35.050Z,2.70
2018-12-21T10:27:23.699Z,3.03
2018-12-21T10:30:12.065Z,1.17
2018-12-21T10:33:00.098Z,1.43
2018-12-21T10:35:47.177Z,1.90
2018-12-21T10:38:34.802Z,2.77
2018-12-21T10:41:22.476Z,1.67
2018-12-21T10:44:09.646Z,1.27
2018-12-21T10:47:12.459Z,0.97
2018-12-21T10:50:00.075Z,1.80
2018-12-21T10:52:47.294Z,2.53
2018-12-21T10:58:40.368Z,2.73
2018-12-21T11:01:30.741Z,1.50
2018-12-21T11:04:18.342Z,1.23
2018-12-21T11:07:05.870Z,1.67
2018-12-21T11:09:52.979Z,1.17
2018-12-21T11:12:40.344Z,1.10
2018-12-21T11:15:27.729Z,1.97
2018-12-21T11:18:15.001Z,0.70
2018-12-21T11:21:04.769Z,1.23
2018-12-21T11:23:51.912Z,1.02
2018-12-21T11:26:41.299Z,1.10
2018-12-21T11:29:28.761Z,0.40
2018-12-21T11:32:16.042Z,2.43
2018-12-21T11:41:18.351Z,1.23
2018-12-21T11:53:31.250Z,1.50
2018-12-21T11:56:18.841Z,2.73
2018-12-21T11:59:06.634Z,1.23
2018-12-21T12:01:55.869Z,1.23
2018-12-21T12:04:43.495Z,1.93
2018-12-21T12:10:41.928Z,0.97
2018-12-21T12:13:29.838Z,1.60
2018-12-21T12:16:19.257Z,0.77
2018-12-21T12:19:06.957Z,0.50
2018-12-21T12:21:57.640Z,0.40
2018-12-21T12:24:52.699Z,0.83
2018-12-21T12:27:36.882Z,0.47
2018-12-21T12:30:25.139Z,2.70
2018-12-21T12:33:12.915Z,1.35
2018-12-21T12:36:00.495Z,1.80
2018-12-21T12:38:47.652Z,1.60
2018-12-21T12:41:34.937Z,1.73
2018-12-21T12:44:22.264Z,1.25
2018-12-21T12:47:10.551Z,1.73
2018-12-21T12:49:57.675Z,2.93
2018-12-21T12:52:47.782Z,1.03
2018-12-21T12:55:35.779Z,1.00
2018-12-21T12:58:23.055Z,2.50
2018-12-21T13:01:10.364Z,1.70
2018-12-21T13:03:59.980Z,3.27
2018-12-21T13:06:53.310Z,0.70
2018-12-21T13:09:59.953Z,3.80
2018-12-21T13:12:49.626Z,1.20
2018-12-21T13:15:37.525Z,0.80
2018-12-21T13:18:31.340Z,0.63
2018-12-21T13:21:20.547Z,1.30
2018-12-21T13:24:08.519Z,1.57
2018-12-21T13:27:07.765Z,0.73
2018-12-21T13:30:00.961Z,0.93
2018-12-21T13:32:48.338Z,0.50
2018-12-21T13:35:38.270Z,0.43
2018-12-21T13:38:27.188Z,4.80
2018-12-21T13:41:16.882Z,1.00
2018-12-21T13:44:06.518Z,1.77
2018-12-21T13:46:54.165Z,1.83
2018-12-21T13:49:45.686Z,1.40
2018-12-21T13:52:33.751Z,1.97
2018-12-21T13:55:33.450Z,1.50
2018-12-21T14:04:42.153Z,1.13
2018-12-21T14:07:30.953Z,1.23
2018-12-21T14:10:21.496Z,0.30
2018-12-21T14:13:09.514Z,0.68
2018-12-21T14:19:08.427Z,1.80
2018-12-21T14:22:00.885Z,0.80
2018-12-21T14:24:48.648Z,0.80
2018-12-21T14:30:44.032Z,1.70
2018-12-21T14:33:32.768Z,2.30
2018-12-21T14:36:20.920Z,1.17
2018-12-21T14:39:09.585Z,0.60
2018-12-21T14:41:57.288Z,1.57
2018-12-21T14:47:58.376Z,3.80
2018-12-21T14:50:46.404Z,2.80
2018-12-21T14:53:36.703Z,0.80
2018-12-21T14:56:25.026Z,1.40
2018-12-21T14:59:19.808Z,0.80
2018-12-21T15:02:10.673Z,0.93
2018-12-21T15:05:02.630Z,0.67
2018-12-21T15:08:01.751Z,0.43
2018-12-21T15:17:11.785Z,0.23
2018-12-21T15:20:02.687Z,0.30
2018-12-21T15:22:54.917Z,0.30
2018-12-21T15:25:47.265Z,0.23
2018-12-21T15:31:47.740Z,0.60
2018-12-21T15:34:46.782Z,0.43
2018-12-21T15:37:35.034Z,1.80
2018-12-21T15:40:25.874Z,1.03
2018-12-21T15:49:36.585Z,0.40
2018-12-21T15:52:23.911Z,2.55
2018-12-21T15:55:11.697Z,0.40
2018-12-21T15:58:00.187Z,0.50
2018-12-21T16:00:49.859Z,0.70
2018-12-21T16:03:42.093Z,0.47
2018-12-21T16:06:39.118Z,0.60
2018-12-21T16:09:26.641Z,3.53
2018-12-21T16:12:15.175Z,1.83
2018-12-21T16:15:02.275Z,1.95
2018-12-21T16:17:49.710Z,0.57
2018-12-21T16:20:37.079Z,0.20
2018-12-21T16:23:24.517Z,0.40
2018-12-21T16:26:11.708Z,0.67
2018-12-21T16:32:20.943Z,0.50
2018-12-21T16:35:08.367Z,0.70
2018-12-21T16:37:58.614Z,0.57
2018-12-21T16:40:45.771Z,0.70
2018-12-21T16:43:32.821Z,0.47
2018-12-21T16:46:20.429Z,0.40
2018-12-21T16:49:07.909Z,0.70
2018-12-21T16:51:55.024Z,2.10
2018-12-21T16:54:42.691Z,0.60
2018-12-21T16:57:29.861Z,0.50
2018-12-21T17:00:17.254Z,0.57
2018-12-21T17:03:04.649Z,0.53
2018-12-21T17:05:52.138Z,0.30
2018-12-21T17:08:39.595Z,0.40
2018-12-21T17:11:42.462Z,0.23
2018-12-21T17:14:29.877Z,0.20
2018-12-21T17:17:17.661Z,0.37
2018-12-21T17:20:06.403Z,0.47
2018-12-21T17:22:53.564Z,2.47
2018-12-21T17:25:40.798Z,0.67
2018-12-21T17:28:28.197Z,0.25
2018-12-21T17:31:17.849Z,0.40
2018-12-21T17:37:12.736Z,0.32
2018-12-21T17:40:00.269Z,0.80
2018-12-21T17:45:53.465Z,0.40
2018-12-21T17:48:48.544Z,0.57
2018-12-21T17:51:40.394Z,0.45
2018-12-21T17:54:31.581Z,0.67
2018-12-21T17:57:18.594Z,0.30
2018-12-21T18:00:06.690Z,0.65
2018-12-21T18:02:53.916Z,0.30
2018-12-21T18:05:41.738Z,0.25
2018-12-21T18:08:29.748Z,0.20
2018-12-21T18:11:17.195Z,0.30
2018-12-21T18:14:12.889Z,0.30
2018-12-21T18:17:07.906Z,0.30
2018-12-21T18:19:55.475Z,0.40
2018-12-21T18:25:49.257Z,0.50
2018-12-21T18:28:36.730Z,0.82
2018-12-21T18:31:26.839Z,0.57
2018-12-21T18:34:15.405Z,0.40
2018-12-21T18:37:02.519Z,0.77
2018-12-21T18:39:57.741Z,0.30
2018-12-21T18:42:45.138Z,0.70
2018-12-21T18:45:32.280Z,0.40
2018-12-21T18:48:21.565Z,0.57
2018-12-21T18:51:08.659Z,0.50
2018-12-21T18:53:55.684Z,0.80
2018-12-21T18:56:47.379Z,0.60
2018-12-21T18:59:34.144Z,0.43
2018-12-21T19:02:22.077Z,0.55
2018-12-21T19:05:11.040Z,0.40
2018-12-21T19:11:04.098Z,2.97
2018-12-21T19:13:52.446Z,1.37
2018-12-21T19:16:39.809Z,1.35
2018-12-21T19:19:27.041Z,0.50
2018-12-21T19:22:14.235Z,1.30
2018-12-21T19:25:02.009Z,0.70
2018-12-21T19:27:50.730Z,0.68
2018-12-21T19:30:37.951Z,0.75
2018-12-21T19:33:25.317Z,1.83
2018-12-21T19:36:13.090Z,0.68
2018-12-21T19:39:00.559Z,0.60
2018-12-21T19:41:47.935Z,2.83
2018-12-21T19:44:37.450Z,1.02
2018-12-21T19:47:25.033Z,2.55
2018-12-21T19:50:12.319Z,1.50
2018-12-21T19:52:59.559Z,1.35
2018-12-21T19:55:46.868Z,1.90
2018-12-21T19:58:34.732Z,3.03
2018-12-21T20:01:22.969Z,5.57
2018-12-21T20:07:16.091Z,4.43
2018-12-21T20:10:04.043Z,2.03
2018-12-21T20:13:07.018Z,2.40
2018-12-21T20:15:54.147Z,3.00
2018-12-21T20:18:41.744Z,4.00
2018-12-21T20:21:30.075Z,2.10
2018-12-21T20:24:17.493Z,5.60
2018-12-21T20:27:13.071Z,3.37
2018-12-21T20:29:52.707Z,4.97
2018-12-21T20:32:40.180Z,3.67
2018-12-21T20:35:28.434Z,4.37
2018-12-21T20:41:22.188Z,5.37
2018-12-21T20:44:09.368Z,3.20
2018-12-21T20:47:05.543Z,4.93
2018-12-21T20:49:52.501Z,5.62
2018-12-21T20:52:41.675Z,6.37
2018-12-21T20:55:28.723Z,3.87
2018-12-21T20:58:17.001Z,5.43
2018-12-21T21:01:04.254Z,6.62
2018-12-21T21:03:52.846Z,8.23
2018-12-21T21:06:40.290Z,10.70
2018-12-21T21:09:27.289Z,10.98
2018-12-21T21:12:17.724Z,8.20
2018-12-21T21:15:06.755Z,8.97
2018-12-21T21:17:54.440Z,6.87
2018-12-21T21:20:41.412Z,7.87
2018-12-21T21:23:28.657Z,12.53
2018-12-21T21:26:15.702Z,7.77
2018-12-21T21:29:02.622Z,10.88
2018-12-21T21:31:51.061Z,11.10
2018-12-21T21:34:38.589Z,11.82
2018-12-21T21:37:26.314Z,11.57
2018-12-21T21:43:30.325Z,10.55
2018-12-21T21:46:24.627Z,10.27
2018-12-21T21:49:19.428Z,13.50
2018-12-21T21:52:09.268Z,13.75
2018-12-21T21:55:12.973Z,9.53
2018-12-21T21:58:00.492Z,12.05
2018-12-21T22:00:47.908Z,11.45
2018-12-21T22:03:39.378Z,13.77
2018-12-21T22:06:26.868Z,13.75
2018-12-21T22:09:15.985Z,14.30
2018-12-21T22:12:03.222Z,11.37
2018-12-21T22:14:50.894Z,9.20
2018-12-21T22:17:37.762Z,15.40
2018-12-21T22:20:24.880Z,14.05
2018-12-21T22:26:18.703Z,11.32
2018-12-21T22:29:10.112Z,8.02
2018-12-21T22:31:57.433Z,12.32
2018-12-21T22:34:44.550Z,10.90
2018-12-21T22:37:33.067Z,11.98
2018-12-21T22:40:25.390Z,14.45
2018-12-21T22:43:13.679Z,9.70
2018-12-21T22:46:00.723Z,10.05
2018-12-21T22:48:47.693Z,12.73
2018-12-21T22:51:34.976Z,14.98
2018-12-21T22:54:22.441Z,13.10
2018-12-21T22:57:09.732Z,12.63
2018-12-21T22:59:57.045Z,13.33
2018-12-21T23:02:53.285Z,14.02
2018-12-21T23:05:40.830Z,17.02
2018-12-21T23:08:29.693Z,12.50
2018-12-21T23:11:21.103Z,14.05
2018-12-21T23:14:08.668Z,10.23
2018-12-21T23:16:57.191Z,14.87
2018-12-21T23:19:44.109Z,9.85
2018-12-21T23:25:39.172Z,12.18
2018-12-21T23:28:27.906Z,10.32
2018-12-21T23:31:15.650Z,14.07
2018-12-21T23:34:03.159Z,11.43
2018-12-21T23:36:50.812Z,17.90
2018-12-21T23:39:40.952Z,9.45
2018-12-21T23:42:31.397Z,11.10
2018-12-21T23:45:19.669Z,12.35
2018-12-21T23:51:16.955Z,8.35
2018-12-21T23:54:05.529Z,11.35
2018-12-21T23:56:53.078Z,8.52
2018-12-21T23:59:45.514Z,10.57
